Time;durP1;ratioP1;P1;durP2;ratioP2;P2;SDS_P1;SDS_P2;PMS_P1;PMS_P2;Temp;Humidity;BMP_temperature;BMP_pressure;BME280_temperature;BME280_humidity;BME280_pressure;Samples;Min_cycle;Max_cycle;Signal;HPM_P1;HPM_P2
2023/09/03 00:01:15;;;;;;;18.70;8.52;;;19.70;99.90;;;;;;4165604;28;20204;-91
2023/09/03 00:03:16;;;;;;;21.98;9.23;;;19.70;99.90;;;;;;4149391;28;20204;-91
2023/09/03 00:05:17;;;;;;;18.40;8.25;;;19.60;99.90;;;;;;4149243;28;20263;-91
2023/09/03 00:07:18;;;;;;;17.35;7.80;;;19.60;99.90;;;;;;4149436;28;20175;-91
2023/09/03 00:09:19;;;;;;;17.77;7.50;;;19.60;99.90;;;;;;4149204;28;20698;-91
2023/09/03 00:11:19;;;;;;;18.92;7.60;;;19.60;99.90;;;;;;4149223;28;20180;-93
2023/09/03 00:13:20;;;;;;;17.73;8.77;;;19.60;99.90;;;;;;4165630;28;20686;-93
2023/09/03 00:15:23;;;;;;;15.43;8.18;;;19.50;99.90;;;;;;4149166;28;20176;-91
2023/09/03 00:17:24;;;;;;;21.48;8.85;;;19.50;99.90;;;;;;4148961;28;20335;-92
2023/09/03 00:19:24;;;;;;;18.95;7.57;;;19.50;99.90;;;;;;4148870;28;20169;-91
2023/09/03 00:21:25;;;;;;;16.92;8.40;;;19.40;99.90;;;;;;4148797;28;20227;-91
2023/09/03 00:23:27;;;;;;;25.13;9.45;;;19.60;99.90;;;;;;4148892;28;20218;-91
2023/09/03 00:25:27;;;;;;;21.60;8.38;;;19.70;99.90;;;;;;4149027;28;20191;-92
2023/09/03 00:27:28;;;;;;;17.25;8.63;;;19.70;99.90;;;;;;4132635;28;20169;-91
2023/09/03 00:29:29;;;;;;;14.43;7.53;;;19.80;99.90;;;;;;4148596;28;20208;-92
2023/09/03 00:31:30;;;;;;;19.73;8.50;;;19.80;99.90;;;;;;4132641;28;20169;-91
2023/09/03 00:33:31;;;;;;;15.20;8.65;;;19.70;99.90;;;;;;4149005;28;20199;-91
2023/09/03 00:35:33;;;;;;;18.58;9.32;;;19.70;99.90;;;;;;4165305;28;20539;-92
2023/09/03 00:37:34;;;;;;;19.33;7.95;;;19.60;99.90;;;;;;4148917;28;20185;-91
2023/09/03 00:39:35;;;;;;;15.05;7.95;;;19.50;99.90;;;;;;4148867;28;20614;-91
2023/09/03 00:41:36;;;;;;;28.77;8.48;;;19.50;99.90;;;;;;4132863;28;20718;-92
2023/09/03 00:43:37;;;;;;;19.98;8.65;;;19.40;99.90;;;;;;4148650;28;20208;-92
2023/09/03 00:45:42;;;;;;;22.33;9.70;;;19.40;99.90;;;;;;4149158;28;20169;-91
2023/09/03 00:47:43;;;;;;;19.70;8.25;;;19.30;99.90;;;;;;4148955;28;20689;-92
2023/09/03 00:49:44;;;;;;;17.38;8.02;;;19.40;99.90;;;;;;4132247;28;20308;-91
2023/09/03 00:51:45;;;;;;;23.00;7.85;;;19.40;99.90;;;;;;4148714;28;20160;-91
2023/09/03 00:53:51;;;;;;;21.05;8.23;;;19.30;99.90;;;;;;4165072;28;20531;-91
2023/09/03 00:55:52;;;;;;;20.23;8.63;;;19.00;99.90;;;;;;4149577;28;20235;-92
2023/09/03 00:57:53;;;;;;;21.48;8.80;;;19.10;99.90;;;;;;4149908;28;20642;-91
2023/09/03 00:59:56;;;;;;;21.58;8.88;;;19.20;99.90;;;;;;4149851;28;20231;-91
2023/09/03 01:01:58;;;;;;;21.98;8.05;;;19.40;99.90;;;;;;4149918;28;20188;-92
2023/09/03 01:03:59;;;;;;;17.15;8.45;;;19.30;99.90;;;;;;4150130;28;20265;-91
2023/09/03 01:06:00;;;;;;;17.25;8.18;;;19.30;99.90;;;;;;4148992;28;20173;-91
2023/09/03 01:08:02;;;;;;;16.33;7.30;;;19.30;99.90;;;;;;4148971;28;20180;-91
2023/09/03 01:10:04;;;;;;;20.35;7.82;;;19.40;99.90;;;;;;4149622;28;20889;-90
2023/09/03 01:12:29;;;;;;;17.10;7.63;;;19.40;99.90;;;;;;4164931;28;20531;-92
2023/09/03 01:14:57;;;;;;;15.18;7.32;;;19.50;99.90;;;;;;4148396;28;20180;-92
2023/09/03 01:17:12;;;;;;;17.63;8.05;;;19.60;99.90;;;;;;4148296;28;20176;-92
2023/09/03 01:19:40;;;;;;;19.80;7.85;;;19.50;99.90;;;;;;4148226;28;20177;-91
2023/09/03 01:21:57;;;;;;;22.05;8.80;;;19.40;99.90;;;;;;4147989;28;20227;-91
2023/09/03 01:23:58;;;;;;;17.90;8.48;;;19.40;99.90;;;;;;4148163;28;20220;-92
2023/09/03 01:26:27;;;;;;;17.05;7.32;;;19.30;99.90;;;;;;4131912;28;20686;-91
2023/09/03 01:28:41;;;;;;;17.33;8.10;;;19.20;99.90;;;;;;4148107;28;20208;-92
2023/09/03 01:30:42;;;;;;;22.17;9.05;;;19.00;99.90;;;;;;4148091;28;20702;-91
2023/09/03 01:32:46;;;;;;;18.65;9.27;;;18.90;99.90;;;;;;4164678;28;20701;-91
2023/09/03 01:34:47;;;;;;;23.33;9.95;;;18.90;99.90;;;;;;4148283;28;20655;-92
2023/09/03 01:36:49;;;;;;;17.27;7.15;;;18.90;99.90;;;;;;4148339;28;20176;-91
2023/09/03 01:38:50;;;;;;;18.42;9.15;;;18.90;99.90;;;;;;4148277;28;20177;-91
2023/09/03 01:40:51;;;;;;;20.20;8.57;;;18.90;99.90;;;;;;4148387;28;20203;-91
2023/09/03 01:42:52;;;;;;;17.42;8.73;;;18.90;99.90;;;;;;4164299;28;20211;-92
2023/09/03 01:44:53;;;;;;;21.67;9.82;;;18.80;99.90;;;;;;4132285;28;20192;-92
2023/09/03 01:47:23;;;;;;;18.13;7.80;;;18.90;99.90;;;;;;4148428;28;21219;-92
2023/09/03 01:49:35;;;;;;;21.73;8.73;;;19.00;99.90;;;;;;4148181;28;20244;-92
2023/09/03 01:52:11;;;;;;;18.90;9.18;;;19.10;99.90;;;;;;4148096;28;20167;-92
2023/09/03 01:54:19;;;;;;;17.25;8.35;;;19.10;99.90;;;;;;4148171;28;20181;-94
2023/09/03 01:56:22;;;;;;;16.10;8.40;;;19.10;99.90;;;;;;4147995;28;20172;-92
2023/09/03 01:58:27;;;;;;;19.50;8.60;;;19.10;99.90;;;;;;4147698;28;20173;-91
2023/09/03 02:00:28;;;;;;;21.75;9.40;;;18.80;99.90;;;;;;4147868;28;20215;-91
2023/09/03 02:02:30;;;;;;;15.98;7.93;;;18.50;99.90;;;;;;4147968;28;20193;-92
2023/09/03 02:04:31;;;;;;;17.30;8.27;;;18.60;99.90;;;;;;4131687;28;20176;-91
2023/09/03 02:06:32;;;;;;;21.15;7.63;;;18.90;99.90;;;;;;4134025;28;20170;-90
2023/09/03 02:08:33;;;;;;;16.88;7.15;;;19.00;99.90;;;;;;4151153;28;20231;-94
2023/09/03 02:10:34;;;;;;;16.30;7.95;;;18.80;99.90;;;;;;4134946;28;20660;-91
2023/09/03 02:12:35;;;;;;;23.88;9.85;;;18.90;99.90;;;;;;4150915;28;20272;-92
2023/09/03 02:14:36;;;;;;;20.05;8.23;;;18.70;99.90;;;;;;4135044;28;20176;-91
2023/09/03 02:16:36;;;;;;;17.65;8.02;;;18.80;99.90;;;;;;4168209;28;20177;-92
2023/09/03 02:18:37;;;;;;;15.18;7.65;;;18.50;99.90;;;;;;4177846;28;20262;-92
2023/09/03 02:20:38;;;;;;;17.38;7.63;;;18.20;99.90;;;;;;4151583;28;20746;-92
2023/09/03 02:22:39;;;;;;;16.13;7.50;;;18.10;99.90;;;;;;4151277;28;20207;-92
2023/09/03 02:24:40;;;;;;;14.82;7.32;;;18.20;99.90;;;;;;4150981;28;20264;-92
2023/09/03 02:26:44;;;;;;;16.08;7.45;;;18.30;99.90;;;;;;4134859;28;20192;-93
2023/09/03 02:28:45;;;;;;;18.13;7.78;;;18.10;99.90;;;;;;4150764;28;20204;-92
2023/09/03 02:30:45;;;;;;;16.50;7.82;;;18.20;99.90;;;;;;4150712;28;20179;-91
2023/09/03 02:32:46;;;;;;;15.48;7.40;;;18.70;99.90;;;;;;4151434;28;20773;-91
2023/09/03 02:34:47;;;;;;;17.83;8.23;;;19.30;99.90;;;;;;4151335;28;20180;-92
2023/09/03 02:36:50;;;;;;;17.88;7.15;;;19.50;99.90;;;;;;4151089;28;20251;-91
2023/09/03 02:39:00;;;;;;;18.80;8.05;;;19.60;99.90;;;;;;4169116;28;20219;-91
2023/09/03 02:41:01;;;;;;;18.58;8.45;;;19.50;99.90;;;;;;4152675;28;20173;-92
2023/09/03 02:43:03;;;;;;;19.52;8.73;;;19.40;99.90;;;;;;4169427;28;20291;-91
2023/09/03 02:45:04;;;;;;;18.05;8.73;;;19.10;99.90;;;;;;4152570;28;20180;-91
2023/09/03 02:47:05;;;;;;;22.83;8.85;;;19.10;99.90;;;;;;4150733;28;20173;-95
2023/09/03 02:49:07;;;;;;;19.48;9.27;;;19.10;99.90;;;;;;4150316;28;20208;-92
2023/09/03 02:51:08;;;;;;;21.70;9.10;;;19.10;99.90;;;;;;4166948;28;20242;-91
2023/09/03 02:53:09;;;;;;;21.13;9.18;;;19.10;99.90;;;;;;4150283;28;20193;-93
2023/09/03 02:55:12;;;;;;;21.15;9.30;;;19.10;99.90;;;;;;4150483;28;20169;-91
2023/09/03 02:57:13;;;;;;;18.35;8.05;;;19.00;99.90;;;;;;4134298;28;20173;-91
2023/09/03 02:59:14;;;;;;;20.52;8.32;;;19.00;99.90;;;;;;4166806;28;20203;-91
2023/09/03 03:01:16;;;;;;;22.05;9.57;;;18.80;99.90;;;;;;4134413;28;20184;-92
2023/09/03 03:03:17;;;;;;;21.50;9.60;;;18.80;99.90;;;;;;4149951;28;20185;-91
2023/09/03 03:05:19;;;;;;;16.23;8.75;;;18.80;99.90;;;;;;4166305;28;20180;-92
2023/09/03 03:07:19;;;;;;;20.73;9.02;;;18.80;99.90;;;;;;4166419;28;20176;-91
2023/09/03 03:09:20;;;;;;;18.20;8.85;;;18.80;99.90;;;;;;4134008;28;20288;-91
2023/09/03 03:11:23;;;;;;;21.60;8.65;;;18.60;99.90;;;;;;4150195;28;20184;-91
2023/09/03 03:13:27;;;;;;;22.67;9.07;;;18.50;99.90;;;;;;4134495;28;20174;-90
2023/09/03 03:15:28;;;;;;;20.13;8.98;;;18.50;99.90;;;;;;4166466;28;20174;-91
2023/09/03 03:17:29;;;;;;;22.75;10.60;;;18.60;99.90;;;;;;4132684;28;20232;-91
2023/09/03 03:19:30;;;;;;;18.38;8.57;;;18.50;99.90;;;;;;4166549;28;20172;-92
2023/09/03 03:21:32;;;;;;;23.05;9.18;;;18.30;99.90;;;;;;4133943;28;20659;-91
2023/09/03 03:23:37;;;;;;;22.58;9.68;;;18.10;99.90;;;;;;4166411;28;20528;-92
2023/09/03 03:25:38;;;;;;;16.55;8.77;;;18.10;99.90;;;;;;4149907;28;20173;-91
2023/09/03 03:27:39;;;;;;;22.27;8.63;;;18.20;99.90;;;;;;4166133;28;20250;-91
2023/09/03 03:29:41;;;;;;;19.48;9.23;;;18.30;99.90;;;;;;4149698;28;20209;-92
2023/09/03 03:31:43;;;;;;;18.73;8.73;;;18.20;99.90;;;;;;4165873;28;20172;-91
2023/09/03 03:33:47;;;;;;;26.95;11.13;;;18.30;99.90;;;;;;4133777;28;20181;-90
2023/09/03 03:35:48;;;;;;;17.10;8.43;;;18.20;99.90;;;;;;4133614;28;20178;-94
2023/09/03 03:37:49;;;;;;;22.13;10.10;;;18.10;99.90;;;;;;4166251;28;20175;-95
2023/09/03 03:39:53;;;;;;;21.02;9.07;;;18.00;99.90;;;;;;4149671;28;20172;-94
2023/09/03 03:41:55;;;;;;;23.42;9.48;;;17.90;99.90;;;;;;4149499;28;20663;-90
2023/09/03 03:43:56;;;;;;;21.70;7.82;;;17.80;99.90;;;;;;4165895;28;20172;-92
2023/09/03 03:46:00;;;;;;;20.35;9.52;;;17.80;99.90;;;;;;4133533;28;20636;-93
2023/09/03 03:48:01;;;;;;;23.80;9.77;;;17.80;99.90;;;;;;4165861;28;20700;-93
2023/09/03 03:50:03;;;;;;;31.42;10.98;;;17.80;99.90;;;;;;4149314;28;20220;-93
2023/09/03 03:52:04;;;;;;;24.55;10.35;;;17.80;99.90;;;;;;4149479;28;20193;-91
2023/09/03 03:54:05;;;;;;;17.85;8.43;;;17.70;99.90;;;;;;4149570;28;20201;-91
2023/09/03 03:56:09;;;;;;;23.50;8.80;;;17.70;99.90;;;;;;4149561;28;20196;-92
2023/09/03 03:58:10;;;;;;;21.75;9.43;;;17.80;99.90;;;;;;4149339;28;20185;-91
2023/09/03 04:00:11;;;;;;;23.73;8.57;;;17.80;99.90;;;;;;4149359;28;20196;-94
2023/09/03 04:02:13;;;;;;;18.23;8.15;;;17.90;99.90;;;;;;4149409;28;20267;-92
2023/09/03 04:04:13;;;;;;;25.90;9.43;;;17.90;99.90;;;;;;4149312;28;20200;-95
2023/09/03 04:06:14;;;;;;;19.77;10.20;;;17.90;99.90;;;;;;4165716;28;20187;-92
2023/09/03 04:08:15;;;;;;;23.90;9.90;;;17.90;99.90;;;;;;4133329;28;20709;-93
2023/09/03 04:10:16;;;;;;;19.58;8.70;;;17.80;99.90;;;;;;4133152;28;20335;-94
2023/09/03 04:12:17;;;;;;;21.90;9.55;;;17.60;99.90;;;;;;4132861;28;20190;-90
2023/09/03 04:14:18;;;;;;;18.05;8.65;;;17.40;99.90;;;;;;4149423;28;20173;-91
2023/09/03 04:16:22;;;;;;;23.10;9.48;;;17.60;99.90;;;;;;4149682;28;20651;-91
2023/09/03 04:18:26;;;;;;;18.48;8.48;;;17.80;99.90;;;;;;4148949;28;20176;-94
2023/09/03 04:20:27;;;;;;;20.23;9.20;;;18.10;99.90;;;;;;4148891;28;20173;-91
2023/09/03 04:22:28;;;;;;;22.55;9.85;;;18.30;99.90;;;;;;4165269;28;20192;-92
2023/09/03 04:24:30;;;;;;;25.35;10.23;;;18.30;99.90;;;;;;4132497;28;20200;-91
2023/09/03 04:26:31;;;;;;;21.27;8.38;;;18.20;99.90;;;;;;4148833;28;20173;-90
2023/09/03 04:28:32;;;;;;;27.52;9.13;;;18.10;99.90;;;;;;4148484;28;20208;-96
2023/09/03 04:30:36;;;;;;;21.58;8.05;;;18.10;99.90;;;;;;4148731;28;20299;-91
2023/09/03 04:32:37;;;;;;;21.33;8.90;;;18.00;99.90;;;;;;4148894;28;20200;-91
2023/09/03 04:34:38;;;;;;;18.85;8.18;;;17.90;99.90;;;;;;4149186;28;20216;-91
2023/09/03 04:36:39;;;;;;;20.23;8.90;;;17.60;99.90;;;;;;4165148;28;20176;-91
2023/09/03 04:38:40;;;;;;;19.92;8.50;;;17.40;99.90;;;;;;4132409;28;20249;-92
2023/09/03 04:40:44;;;;;;;19.45;8.70;;;17.10;99.90;;;;;;4148728;28;20170;-91
2023/09/03 04:42:45;;;;;;;19.17;8.48;;;16.90;99.90;;;;;;4132206;28;20683;-90
2023/09/03 04:44:46;;;;;;;19.85;8.45;;;16.90;99.90;;;;;;4148850;28;20177;-90
2023/09/03 04:46:47;;;;;;;13.25;6.85;;;17.10;99.90;;;;;;4148852;28;20173;-92
2023/09/03 04:48:48;;;;;;;14.65;7.20;;;17.00;99.90;;;;;;4148684;28;20303;-91
2023/09/03 04:50:49;;;;;;;17.65;7.40;;;17.10;99.90;;;;;;4148886;28;20185;-91
2023/09/03 04:52:50;;;;;;;17.13;7.38;;;17.40;99.90;;;;;;4148511;28;20595;-91
2023/09/03 04:54:53;;;;;;;14.25;6.95;;;17.70;99.90;;;;;;4164822;28;20562;-90
2023/09/03 04:56:54;;;;;;;16.13;7.40;;;18.20;99.90;;;;;;4148704;28;20251;-94
2023/09/03 04:58:55;;;;;;;10.40;5.70;;;18.40;99.90;;;;;;4164787;28;20172;-94
2023/09/03 05:00:57;;;;;;;14.23;6.13;;;18.40;99.90;;;;;;4132388;28;20627;-92
2023/09/03 05:02:58;;;;;;;17.65;7.05;;;18.30;99.90;;;;;;4164638;28;20215;-90
2023/09/03 05:04:59;;;;;;;13.70;6.13;;;18.30;99.90;;;;;;4164673;28;20173;-91
2023/09/03 05:07:02;;;;;;;12.40;6.28;;;18.20;99.90;;;;;;4148450;28;20177;-91
2023/09/03 05:09:03;;;;;;;17.35;6.68;;;18.00;99.90;;;;;;4148691;28;20255;-92
2023/09/03 05:11:11;;;;;;;13.60;7.30;;;18.00;99.90;;;;;;4133075;28;20161;-92
2023/09/03 05:13:13;;;;;;;16.13;7.38;;;17.90;99.90;;;;;;4151278;28;20196;-94
2023/09/03 05:15:14;;;;;;;15.85;7.35;;;17.80;99.90;;;;;;4165436;28;20677;-90
2023/09/03 05:17:16;;;;;;;12.85;6.15;;;17.60;99.90;;;;;;4132403;28;20184;-92
2023/09/03 05:19:19;;;;;;;15.25;6.90;;;17.60;99.90;;;;;;4164712;28;20251;-93
2023/09/03 05:21:20;;;;;;;13.02;6.95;;;17.80;99.90;;;;;;4148387;28;20197;-92
2023/09/03 05:23:21;;;;;;;16.65;7.38;;;17.80;99.90;;;;;;4164749;28;20199;-92
2023/09/03 05:25:22;;;;;;;11.43;6.45;;;17.80;99.90;;;;;;4132264;28;20327;-93
2023/09/03 05:27:23;;;;;;;12.80;7.55;;;17.90;99.90;;;;;;4148483;28;20199;-91
2023/09/03 05:29:25;;;;;;;14.73;6.85;;;18.10;99.90;;;;;;4132079;28;20244;-93
2023/09/03 05:31:27;;;;;;;38.90;9.00;;;18.10;99.90;;;;;;4164546;28;20165;-93
2023/09/03 05:33:27;;;;;;;13.10;6.95;;;17.80;99.90;;;;;;4131938;28;20182;-91
2023/09/03 05:35:28;;;;;;;17.15;7.75;;;17.80;99.90;;;;;;4148052;28;20271;-90
2023/09/03 05:37:29;;;;;;;14.60;7.15;;;17.90;99.90;;;;;;4131721;28;20710;-90
2023/09/03 05:39:31;;;;;;;12.10;6.80;;;18.00;99.90;;;;;;4164124;28;20645;-93
2023/09/03 05:41:31;;;;;;;11.55;5.85;;;17.60;99.90;;;;;;4150372;28;20571;-93
2023/09/03 05:43:33;;;;;;;14.32;6.85;;;17.50;99.90;;;;;;4167597;28;20210;-90
2023/09/03 05:45:34;;;;;;;11.77;6.25;;;17.70;99.90;;;;;;4167709;28;20200;-93
2023/09/03 05:47:34;;;;;;;12.13;6.10;;;18.20;99.90;;;;;;4135083;28;20177;-93
2023/09/03 05:49:37;;;;;;;22.00;6.30;;;18.40;99.90;;;;;;4151540;28;20212;-90
2023/09/03 05:51:39;;;;;;;12.32;6.88;;;18.40;99.90;;;;;;4135090;28;20172;-93
2023/09/03 05:53:42;;;;;;;25.70;8.23;;;18.30;99.90;;;;;;4151442;28;20797;-93
2023/09/03 05:55:42;;;;;;;14.80;6.82;;;18.10;99.90;;;;;;4151621;28;20196;-93
2023/09/03 05:57:43;;;;;;;13.15;6.32;;;17.90;99.90;;;;;;4167747;28;20176;-91
2023/09/03 05:59:49;;;;;;;28.38;7.28;;;17.90;99.90;;;;;;4151252;28;20243;-91
2023/09/03 06:01:51;;;;;;;14.98;7.63;;;18.10;99.90;;;;;;4151282;28;20188;-91
2023/09/03 06:03:52;;;;;;;16.70;7.03;;;17.90;99.90;;;;;;4135251;28;20184;-94
2023/09/03 06:05:53;;;;;;;13.70;5.93;;;17.80;99.90;;;;;;4151112;28;20204;-93
2023/09/03 06:07:54;;;;;;;17.95;7.43;;;17.90;99.90;;;;;;4134972;28;20188;-90
2023/09/03 06:09:54;;;;;;;21.60;7.25;;;18.10;99.90;;;;;;4151114;28;20220;-90
2023/09/03 06:11:55;;;;;;;14.35;6.88;;;17.90;99.90;;;;;;4134752;28;20328;-90
2023/09/03 06:13:56;;;;;;;15.85;7.32;;;17.80;99.90;;;;;;4151125;28;20445;-91
2023/09/03 06:15:58;;;;;;;15.50;7.07;;;17.80;99.90;;;;;;4134786;28;20201;-92
2023/09/03 06:17:59;;;;;;;14.52;7.07;;;17.60;99.90;;;;;;4167448;28;20168;-91
2023/09/03 06:20:00;;;;;;;11.80;6.60;;;17.40;99.90;;;;;;4134736;28;20165;-91
2023/09/03 06:22:01;;;;;;;13.65;6.75;;;17.60;99.90;;;;;;4150903;28;20204;-93
2023/09/03 06:24:01;;;;;;;14.80;6.60;;;17.80;99.90;;;;;;4134625;28;20186;-92
2023/09/03 06:26:02;;;;;;;12.95;6.25;;;18.00;99.90;;;;;;4150856;28;20165;-91
2023/09/03 06:28:03;;;;;;;14.05;6.30;;;18.10;99.90;;;;;;4167074;28;20577;-93
2023/09/03 06:30:05;;;;;;;12.88;7.18;;;18.30;99.90;;;;;;4150561;28;20299;-93
2023/09/03 06:32:06;;;;;;;15.35;6.60;;;18.30;99.90;;;;;;4150744;28;20200;-93
2023/09/03 06:34:06;;;;;;;16.50;7.38;;;18.30;99.90;;;;;;4167346;28;20191;-91
2023/09/03 06:36:07;;;;;;;16.05;7.63;;;18.50;99.90;;;;;;4134896;28;20197;-92
2023/09/03 06:38:08;;;;;;;13.35;6.75;;;18.80;99.90;;;;;;4134542;28;20178;-91
2023/09/03 06:40:13;;;;;;;16.52;7.45;;;18.50;99.90;;;;;;4134526;28;20173;-90
2023/09/03 06:42:14;;;;;;;10.57;6.00;;;18.10;99.90;;;;;;4150522;28;20196;-91
2023/09/03 06:44:15;;;;;;;17.13;7.47;;;18.00;99.90;;;;;;4134343;28;20260;-94
2023/09/03 06:46:17;;;;;;;13.65;7.00;;;18.20;99.90;;;;;;4150753;28;20161;-91
2023/09/03 06:48:18;;;;;;;14.27;6.78;;;18.70;99.90;;;;;;4150421;28;20618;-91
2023/09/03 06:50:18;;;;;;;16.17;7.53;;;19.00;99.90;;;;;;4150530;28;20169;-91
2023/09/03 06:52:19;;;;;;;16.50;7.68;;;18.90;99.90;;;;;;4166554;28;20673;-90
2023/09/03 06:54:20;;;;;;;20.85;7.85;;;19.00;99.90;;;;;;4166810;28;20211;-91
2023/09/03 06:56:21;;;;;;;15.57;7.35;;;19.30;99.90;;;;;;4150186;28;20177;-94
2023/09/03 06:58:22;;;;;;;13.85;6.88;;;19.10;99.90;;;;;;4150087;28;20239;-91
2023/09/03 07:00:22;;;;;;;12.43;7.32;;;19.10;99.90;;;;;;4150217;28;20226;-91
2023/09/03 07:02:25;;;;;;;14.63;7.57;;;19.10;99.90;;;;;;4166582;28;20689;-93
2023/09/03 07:04:25;;;;;;;15.70;7.82;;;18.90;99.90;;;;;;4166826;28;20219;-91
2023/09/03 07:06:26;;;;;;;15.95;7.97;;;18.90;99.90;;;;;;4150278;28;20275;-93
2023/09/03 07:08:29;;;;;;;17.65;9.00;;;18.80;99.90;;;;;;4150151;28;20562;-91
2023/09/03 07:10:29;;;;;;;12.00;6.78;;;18.70;99.90;;;;;;4150223;28;20172;-94
2023/09/03 07:12:30;;;;;;;16.63;7.88;;;18.80;99.90;;;;;;4150004;28;20544;-93
2023/09/03 07:14:32;;;;;;;11.95;6.93;;;18.70;99.90;;;;;;4150238;28;20212;-91
2023/09/03 07:16:35;;;;;;;19.30;8.98;;;18.80;99.90;;;;;;4150629;28;20184;-90
2023/09/03 07:18:35;;;;;;;20.73;9.50;;;18.70;99.90;;;;;;4150074;28;20181;-92
2023/09/03 07:20:37;;;;;;;25.77;9.82;;;18.40;99.90;;;;;;4149796;28;20192;-92
2023/09/03 07:22:37;;;;;;;22.88;9.75;;;18.40;99.90;;;;;;4166124;28;20203;-93
2023/09/03 07:24:38;;;;;;;22.38;9.27;;;18.70;99.90;;;;;;4133628;28;20190;-91
2023/09/03 07:26:39;;;;;;;24.20;9.27;;;19.00;99.90;;;;;;4150532;28;20184;-93
2023/09/03 07:28:40;;;;;;;24.90;10.27;;;19.00;99.90;;;;;;4133525;28;20232;-91
2023/09/03 07:30:42;;;;;;;27.20;10.18;;;18.70;99.90;;;;;;4149843;28;20259;-91
2023/09/03 07:32:43;;;;;;;26.20;10.32;;;18.80;99.90;;;;;;4149772;28;20185;-92
2023/09/03 07:34:45;;;;;;;29.13;10.30;;;18.80;99.90;;;;;;4133730;28;20268;-91
2023/09/03 07:36:46;;;;;;;24.92;10.27;;;19.00;99.90;;;;;;4133526;28;20182;-90
2023/09/03 07:38:46;;;;;;;25.33;10.32;;;18.90;99.90;;;;;;4149936;28;20268;-92
2023/09/03 07:40:48;;;;;;;24.52;10.50;;;19.20;99.90;;;;;;4149990;28;20172;-93
2023/09/03 07:42:49;;;;;;;29.48;10.85;;;19.50;99.90;;;;;;4133493;28;20190;-91
2023/09/03 07:44:50;;;;;;;27.98;11.65;;;19.70;99.90;;;;;;4149975;28;20180;-91
2023/09/03 07:46:51;;;;;;;31.27;10.32;;;19.90;99.90;;;;;;4149832;28;20184;-91
2023/09/03 07:48:52;;;;;;;32.63;11.00;;;19.70;99.90;;;;;;4149828;28;20204;-91
2023/09/03 07:50:53;;;;;;;29.42;11.15;;;20.00;99.90;;;;;;4149824;28;20655;-91
2023/09/03 07:52:53;;;;;;;36.05;12.73;;;20.30;99.90;;;;;;4165724;28;20184;-92
2023/09/03 07:54:54;;;;;;;34.45;12.48;;;20.40;99.90;;;;;;4149451;28;20180;-92
2023/09/03 07:56:55;;;;;;;37.20;12.80;;;20.60;99.90;;;;;;4149561;28;20657;-92
2023/09/03 07:58:56;;;;;;;36.60;12.55;;;21.20;99.90;;;;;;4133402;28;20181;-94
2023/09/03 08:00:57;;;;;;;35.17;12.98;;;21.60;99.90;;;;;;4165592;28;20614;-90
2023/09/03 08:02:57;;;;;;;32.72;13.90;;;21.90;99.90;;;;;;4148780;28;20193;-92
2023/09/03 08:04:58;;;;;;;28.65;12.00;;;22.20;99.90;;;;;;4149082;28;20181;-92
2023/09/03 08:06:59;;;;;;;39.85;14.63;;;22.30;99.90;;;;;;4132991;28;20162;-94
2023/09/03 08:09:02;;;;;;;37.25;14.70;;;22.70;99.90;;;;;;4149256;28;20578;-92
2023/09/03 08:11:03;;;;;;;33.58;13.68;;;23.00;99.90;;;;;;4132997;28;20553;-92
2023/09/03 08:13:04;;;;;;;34.13;14.18;;;23.30;99.90;;;;;;4132824;28;20193;-94
2023/09/03 08:15:06;;;;;;;29.80;12.57;;;23.60;99.90;;;;;;4133289;28;20241;-91
2023/09/03 08:17:07;;;;;;;33.10;13.55;;;23.80;99.90;;;;;;4133341;28;20182;-92
2023/09/03 08:19:08;;;;;;;23.45;11.52;;;23.80;99.90;;;;;;4156107;28;20173;-92
2023/09/03 08:21:09;;;;;;;26.75;11.50;;;24.00;99.90;;;;;;4166579;28;20169;-91
2023/09/03 08:23:13;;;;;;;24.88;11.07;;;24.50;99.90;;;;;;4165997;28;20193;-91
2023/09/03 08:25:14;;;;;;;25.88;10.85;;;24.40;99.90;;;;;;4150771;28;20165;-92
2023/09/03 08:27:15;;;;;;;20.20;10.10;;;24.50;99.90;;;;;;4149429;28;20183;-91
2023/09/03 08:29:16;;;;;;;19.90;9.35;;;24.60;99.90;;;;;;4133068;28;20212;-93
2023/09/03 08:31:17;;;;;;;20.05;10.18;;;24.70;99.90;;;;;;4149314;28;20543;-93
2023/09/03 08:33:17;;;;;;;18.38;9.15;;;25.10;99.90;;;;;;4132744;28;20252;-91
2023/09/03 08:35:18;;;;;;;18.30;9.35;;;25.40;99.90;;;;;;4149418;28;20180;-93
2023/09/03 08:37:19;;;;;;;24.10;9.85;;;25.50;99.90;;;;;;4149000;28;20185;-93
2023/09/03 08:39:20;;;;;;;19.52;9.23;;;25.80;99.90;;;;;;4148859;28;20172;-92
2023/09/03 08:41:22;;;;;;;20.88;10.30;;;26.10;99.90;;;;;;4148753;28;20188;-94
2023/09/03 08:43:26;;;;;;;20.83;9.20;;;26.10;99.90;;;;;;4132399;28;20249;-92
2023/09/03 08:45:28;;;;;;;20.33;9.50;;;26.00;99.90;;;;;;4148924;28;20205;-93
2023/09/03 08:47:31;;;;;;;19.65;10.07;;;25.80;99.90;;;;;;4149107;28;20635;-92
2023/09/03 08:49:33;;;;;;;19.10;10.38;;;25.70;99.90;;;;;;4148592;28;20213;-94
2023/09/03 08:51:36;;;;;;;17.42;8.90;;;25.60;99.90;;;;;;4148686;28;20188;-92
2023/09/03 08:53:38;;;;;;;16.40;8.52;;;25.90;99.90;;;;;;4165265;28;20184;-93
2023/09/03 08:55:40;;;;;;;19.15;9.35;;;26.10;99.90;;;;;;4148661;28;20266;-92
2023/09/03 08:57:41;;;;;;;17.17;8.68;;;26.00;99.90;;;;;;4148677;28;20614;-92
2023/09/03 08:59:42;;;;;;;15.32;8.05;;;25.80;99.90;;;;;;4164850;28;20176;-92
2023/09/03 09:01:49;;;;;;;16.40;7.88;;;25.50;99.90;;;;;;4132261;28;20312;-92
2023/09/03 09:03:51;;;;;;;19.05;8.25;;;25.30;99.90;;;;;;4164751;28;20226;-92
2023/09/03 09:05:53;;;;;;;14.13;7.47;;;25.50;99.90;;;;;;4164922;28;20272;-92
2023/09/03 09:07:55;;;;;;;15.73;8.57;;;25.30;99.90;;;;;;4148322;28;20173;-93
2023/09/03 09:09:58;;;;;;;16.23;7.60;;;25.00;99.90;;;;;;4148375;28;20208;-93
2023/09/03 09:12:10;;;;;;;13.95;6.45;;;24.80;99.90;;;;;;4148450;28;20188;-94
2023/09/03 09:14:35;;;;;;;15.27;7.47;;;24.70;99.90;;;;;;4148461;28;20189;-91
2023/09/03 09:16:35;;;;;;;13.45;6.72;;;24.60;99.90;;;;;;4148383;28;20180;-91
2023/09/03 09:18:39;;;;;;;14.75;7.00;;;25.00;99.90;;;;;;4148409;28;20215;-91
2023/09/03 09:20:41;;;;;;;16.15;6.72;;;25.00;99.90;;;;;;4148581;28;20196;-92
2023/09/03 09:22:45;;;;;;;12.98;6.53;;;25.20;99.90;;;;;;4148456;28;20288;-92
2023/09/03 09:24:47;;;;;;;11.85;5.75;;;24.90;99.90;;;;;;4165293;28;20192;-92
2023/09/03 09:26:47;;;;;;;10.30;5.38;;;24.90;99.90;;;;;;4148399;28;20180;-92
2023/09/03 09:28:57;;;;;;;12.40;5.63;;;25.10;99.90;;;;;;4164625;28;20218;-92
2023/09/03 09:30:59;;;;;;;10.45;5.10;;;25.20;99.90;;;;;;4148405;28;20658;-91
2023/09/03 09:33:04;;;;;;;8.98;4.82;;;25.60;99.90;;;;;;4148423;28;20189;-92
2023/09/03 09:35:09;;;;;;;9.95;5.15;;;26.00;99.90;;;;;;4148249;28;20173;-92
2023/09/03 09:37:11;;;;;;;9.80;5.43;;;25.90;99.90;;;;;;4148050;28;20665;-92
2023/09/03 09:39:11;;;;;;;9.63;4.30;;;25.30;99.90;;;;;;4149764;28;20168;-94
2023/09/03 09:41:26;;;;;;;8.27;4.18;;;25.50;99.90;;;;;;4149441;28;20195;-94
2023/09/03 09:43:45;;;;;;;10.00;5.68;;;25.30;99.90;;;;;;4150477;28;20693;-93
2023/09/03 09:45:48;;;;;;;8.75;4.53;;;25.50;99.90;;;;;;4148539;28;20177;-93
2023/09/03 09:48:09;;;;;;;9.45;4.97;;;25.30;99.90;;;;;;4149454;28;20578;-93
2023/09/03 09:50:13;;;;;;;10.60;5.28;;;25.50;99.90;;;;;;4148207;28;20220;-93
2023/09/03 09:52:17;;;;;;;11.27;4.80;;;25.60;99.90;;;;;;4149494;28;20189;-93
2023/09/03 09:54:18;;;;;;;9.52;5.00;;;26.00;99.90;;;;;;4148205;28;20194;-94
2023/09/03 09:56:19;;;;;;;10.38;4.90;;;26.00;99.90;;;;;;4164365;28;20204;-93
2023/09/03 09:58:20;;;;;;;9.85;5.22;;;26.30;99.90;;;;;;4131988;28;20169;-94
2023/09/03 10:00:43;;;;;;;7.47;4.03;;;26.30;99.90;;;;;;4148459;28;20179;-94
2023/09/03 10:02:56;;;;;;;7.03;3.80;;;26.00;99.90;;;;;;4148556;28;20184;-91
2023/09/03 10:04:57;;;;;;;7.50;4.20;;;25.50;99.90;;;;;;4147923;28;20263;-93
2023/09/03 10:06:59;;;;;;;8.95;4.32;;;25.60;99.90;;;;;;4164738;28;20186;-92
2023/09/03 10:09:03;;;;;;;9.90;4.68;;;24.90;99.90;;;;;;4148032;28;20208;-92
2023/09/03 10:11:03;;;;;;;7.75;4.28;;;24.70;99.90;;;;;;4148236;28;20232;-93
2023/09/03 10:13:06;;;;;;;7.18;3.72;;;24.70;99.90;;;;;;4148610;28;20247;-91
2023/09/03 10:15:12;;;;;;;7.63;3.80;;;24.80;99.90;;;;;;4166991;28;20327;-94
2023/09/03 10:17:14;;;;;;;7.20;3.78;;;24.90;99.90;;;;;;4132328;28;20208;-93
2023/09/03 10:19:20;;;;;;;5.03;3.28;;;24.80;99.90;;;;;;4149661;28;20173;-93
2023/09/03 10:21:24;;;;;;;5.95;3.60;;;24.90;99.90;;;;;;4149091;28;20207;-92
2023/09/03 10:23:33;;;;;;;7.55;3.80;;;24.70;99.90;;;;;;4148010;28;20193;-93
2023/09/03 10:25:35;;;;;;;8.05;4.28;;;24.40;99.90;;;;;;4149302;28;20169;-94
2023/09/03 10:27:41;;;;;;;7.80;3.67;;;24.60;99.90;;;;;;4150985;28;20229;-91
2023/09/03 10:29:44;;;;;;;7.97;3.78;;;24.90;99.90;;;;;;4152207;28;20220;-93